createdAt,value
2022-07-25T00:01:54.888Z,10.40
2022-07-25T00:06:51.146Z,9.82
2022-07-25T00:11:46.642Z,9.35
2022-07-25T00:16:41.318Z,9.80
2022-07-25T00:21:34.674Z,9.07
2022-07-25T00:26:28.122Z,8.95
2022-07-25T00:31:23.065Z,8.40
2022-07-25T00:36:16.402Z,7.95
2022-07-25T00:41:09.777Z,8.60
2022-07-25T00:46:03.282Z,9.13
2022-07-25T00:50:58.401Z,8.80
2022-07-25T00:55:51.834Z,9.23
2022-07-25T01:00:45.250Z,8.63
2022-07-25T01:05:39.052Z,8.75
2022-07-25T01:10:34.568Z,9.80
2022-07-25T01:15:28.764Z,9.80
2022-07-25T01:20:24.710Z,11.23
2022-07-25T01:25:19.648Z,11.10
2022-07-25T01:30:17.793Z,11.60
2022-07-25T01:35:13.229Z,11.00
2022-07-25T01:40:09.666Z,10.60
2022-07-25T01:45:05.932Z,10.20
2022-07-25T01:50:02.294Z,10.13
2022-07-25T01:54:55.664Z,11.27
2022-07-25T01:59:51.367Z,11.25
2022-07-25T02:04:45.088Z,9.80
2022-07-25T02:09:40.220Z,10.23
2022-07-25T02:14:33.525Z,10.45
2022-07-25T02:19:28.245Z,10.75
2022-07-25T02:24:21.648Z,11.18
2022-07-25T02:29:14.924Z,10.15
2022-07-25T02:34:08.711Z,10.48
2022-07-25T02:39:04.074Z,10.55
2022-07-25T02:43:57.550Z,10.68
2022-07-25T02:48:51.314Z,10.35
2022-07-25T02:53:57.146Z,10.02
2022-07-25T02:58:52.830Z,10.52
2022-07-25T03:03:46.404Z,10.00
2022-07-25T03:08:43.015Z,10.90
2022-07-25T03:13:36.506Z,10.27
2022-07-25T03:18:31.483Z,10.60
2022-07-25T03:23:30.076Z,10.02
2022-07-25T03:28:23.416Z,9.73
2022-07-25T03:33:17.014Z,10.73
2022-07-25T03:38:12.533Z,10.07
2022-07-25T03:43:06.334Z,10.50
2022-07-25T03:48:00.743Z,10.68
2022-07-25T03:52:54.264Z,11.00
2022-07-25T03:57:51.682Z,11.40
2022-07-25T04:02:45.593Z,12.48
2022-07-25T04:07:39.836Z,11.68
2022-07-25T04:12:33.396Z,12.55
2022-07-25T04:17:28.165Z,11.18
2022-07-25T04:22:21.380Z,10.85
2022-07-25T04:27:14.748Z,10.43
2022-07-25T04:32:08.660Z,11.38
2022-07-25T04:37:03.491Z,11.23
2022-07-25T04:41:58.895Z,12.35
2022-07-25T04:46:55.019Z,11.48
2022-07-25T04:51:51.637Z,11.15
2022-07-25T04:56:46.481Z,10.73
2022-07-25T05:01:39.781Z,11.40
2022-07-25T05:06:33.369Z,11.23
2022-07-25T05:11:26.812Z,10.77
2022-07-25T05:16:21.562Z,10.30
2022-07-25T05:21:15.028Z,11.20
2022-07-25T05:26:08.350Z,11.50
2022-07-25T05:31:01.858Z,11.27
2022-07-25T05:35:56.530Z,11.00
2022-07-25T05:40:52.381Z,11.20
2022-07-25T05:45:47.444Z,11.05
2022-07-25T05:50:40.714Z,11.23
2022-07-25T05:55:40.705Z,12.07
2022-07-25T06:00:34.590Z,11.48
2022-07-25T06:05:28.128Z,12.52
2022-07-25T06:10:22.413Z,12.82
2022-07-25T06:15:23.100Z,11.77
2022-07-25T06:20:20.544Z,12.70
2022-07-25T06:25:14.225Z,12.13
2022-07-25T06:30:19.205Z,11.95
2022-07-25T06:35:17.622Z,11.90
2022-07-25T06:40:11.654Z,11.13
2022-07-25T06:45:05.587Z,11.18
2022-07-25T06:49:58.879Z,12.23
2022-07-25T06:54:53.488Z,11.48
2022-07-25T06:59:47.200Z,11.05
2022-07-25T07:04:40.831Z,11.95
2022-07-25T07:09:34.053Z,11.48
2022-07-25T07:14:34.085Z,11.70
2022-07-25T07:19:27.385Z,11.55
2022-07-25T07:24:24.446Z,11.48
2022-07-25T07:29:19.183Z,10.88
2022-07-25T07:34:14.465Z,11.10
2022-07-25T07:39:10.026Z,10.85
2022-07-25T07:44:03.457Z,10.88
2022-07-25T07:48:56.975Z,10.70
2022-07-25T07:54:09.395Z,10.30
2022-07-25T07:59:05.469Z,10.50
2022-07-25T08:03:59.008Z,9.98
2022-07-25T08:08:55.662Z,10.15
2022-07-25T08:13:49.035Z,9.15
2022-07-25T08:18:42.415Z,10.00
2022-07-25T08:23:38.959Z,9.40
2022-07-25T08:28:33.888Z,8.82
2022-07-25T08:33:28.480Z,8.45
2022-07-25T08:38:22.737Z,9.00
2022-07-25T08:43:20.521Z,9.38
2022-07-25T08:48:18.046Z,9.00
2022-07-25T08:53:31.994Z,9.10
2022-07-25T08:58:31.641Z,9.10
2022-07-25T09:03:30.861Z,8.27
2022-07-25T09:08:24.299Z,8.55
2022-07-25T09:13:18.659Z,8.40
2022-07-25T09:18:14.664Z,8.27
2022-07-25T09:23:11.280Z,8.48
2022-07-25T09:28:17.360Z,7.70
2022-07-25T09:33:10.681Z,7.68
2022-07-25T09:38:13.239Z,7.32
2022-07-25T09:43:06.905Z,7.70
2022-07-25T09:48:02.106Z,6.68
2022-07-25T09:52:57.095Z,6.50
2022-07-25T09:57:56.653Z,6.47
2022-07-25T10:02:57.357Z,6.70
2022-07-25T10:08:22.855Z,7.45
2022-07-25T10:13:32.211Z,7.70
2022-07-25T10:18:28.900Z,6.78
2022-07-25T10:23:24.674Z,6.85
2022-07-25T10:28:22.262Z,7.10
2022-07-25T10:33:18.816Z,6.47
2022-07-25T10:38:12.251Z,6.53
2022-07-25T10:43:10.002Z,6.90
2022-07-25T10:48:08.501Z,6.45
2022-07-25T10:53:07.888Z,6.82
2022-07-25T10:58:17.032Z,6.35
2022-07-25T11:03:18.099Z,7.15
2022-07-25T11:08:21.612Z,7.43
2022-07-25T11:13:16.189Z,6.35
2022-07-25T11:18:09.422Z,6.35
2022-07-25T11:23:04.149Z,6.07
2022-07-25T11:27:59.243Z,6.50
2022-07-25T11:32:56.218Z,6.65
2022-07-25T11:37:51.562Z,6.47
2022-07-25T11:42:48.130Z,5.57
2022-07-25T11:47:41.423Z,6.47
2022-07-25T11:52:36.772Z,5.93
2022-07-25T11:57:32.833Z,6.38
2022-07-25T12:02:31.234Z,5.55
2022-07-25T12:07:45.916Z,6.30
2022-07-25T12:12:53.059Z,6.25
2022-07-25T12:17:48.586Z,6.18
2022-07-25T12:22:42.291Z,5.97
2022-07-25T12:27:35.649Z,6.60
2022-07-25T12:32:28.970Z,6.55
2022-07-25T12:37:23.630Z,6.55
2022-07-25T12:42:17.260Z,6.88
2022-07-25T12:47:10.752Z,6.22
2022-07-25T12:52:03.938Z,6.00
2022-07-25T12:56:58.757Z,6.63
2022-07-25T13:01:52.161Z,5.68
2022-07-25T13:06:45.549Z,6.18
2022-07-25T13:11:38.735Z,6.43
2022-07-25T13:16:34.728Z,5.97
2022-07-25T13:21:27.943Z,5.18
2022-07-25T13:26:21.274Z,5.65
2022-07-25T13:31:18.275Z,6.00
2022-07-25T13:36:13.115Z,6.60
2022-07-25T13:41:06.444Z,5.78
2022-07-25T13:45:59.951Z,5.72
2022-07-25T13:50:53.300Z,5.45
2022-07-25T13:55:48.378Z,5.40
2022-07-25T14:00:41.917Z,5.30
2022-07-25T14:05:35.492Z,5.38
2022-07-25T14:10:29.284Z,6.15
2022-07-25T14:15:24.461Z,5.68
2022-07-25T14:20:17.775Z,5.43
2022-07-25T14:25:12.115Z,5.10
2022-07-25T14:30:06.208Z,5.53
2022-07-25T14:35:02.045Z,5.80
2022-07-25T14:39:55.523Z,5.28
2022-07-25T14:44:48.870Z,5.32
2022-07-25T14:50:00.578Z,5.30
2022-07-25T14:54:59.848Z,5.80
2022-07-25T15:00:06.251Z,6.00
2022-07-25T15:05:01.054Z,5.53
2022-07-25T15:14:55.025Z,5.78
2022-07-25T15:19:53.332Z,5.65
2022-07-25T15:25:21.396Z,6.20
2022-07-25T15:35:03.237Z,5.93
2022-07-25T15:39:56.513Z,5.50
2022-07-25T15:45:03.848Z,5.95
2022-07-25T15:50:05.815Z,5.82
2022-07-25T15:54:59.180Z,5.68
2022-07-25T15:59:52.472Z,5.45
2022-07-25T16:04:48.594Z,5.70
2022-07-25T16:09:45.770Z,5.70
2022-07-25T16:14:39.596Z,5.90
2022-07-25T16:19:33.199Z,6.38
2022-07-25T16:24:26.801Z,5.88
2022-07-25T16:29:30.043Z,6.45
2022-07-25T16:34:28.685Z,5.68
2022-07-25T16:39:23.324Z,6.10
2022-07-25T16:44:16.715Z,6.35
2022-07-25T16:49:11.720Z,5.97
2022-07-25T16:54:05.742Z,7.82
2022-07-25T16:59:01.746Z,5.88
2022-07-25T17:03:56.408Z,5.32
2022-07-25T17:08:51.346Z,6.05
2022-07-25T17:13:44.840Z,6.50
2022-07-25T17:18:38.658Z,6.35
2022-07-25T17:23:32.155Z,5.43
2022-07-25T17:28:27.342Z,6.00
2022-07-25T17:33:24.111Z,5.82
2022-07-25T17:38:20.049Z,6.22
2022-07-25T17:43:15.660Z,6.13
2022-07-25T17:48:10.422Z,6.45
2022-07-25T17:53:04.819Z,5.80
2022-07-25T17:57:59.781Z,6.78
2022-07-25T18:02:53.283Z,7.22
2022-07-25T18:07:49.625Z,6.45
2022-07-25T18:12:43.219Z,6.97
2022-07-25T18:17:36.723Z,7.40
2022-07-25T18:22:32.974Z,7.32
2022-07-25T18:27:35.896Z,6.60
2022-07-25T18:32:29.365Z,7.72
2022-07-25T18:38:17.981Z,7.32
2022-07-25T18:43:16.272Z,7.90
2022-07-25T18:48:11.442Z,7.05
2022-07-25T18:53:05.747Z,7.38
2022-07-25T18:58:00.171Z,6.90
2022-07-25T19:02:55.031Z,7.30
2022-07-25T19:07:49.522Z,7.53
2022-07-25T19:12:52.809Z,7.13
2022-07-25T19:17:46.185Z,8.27
2022-07-25T19:22:42.754Z,8.52
2022-07-25T19:27:36.197Z,7.35
2022-07-25T19:32:29.383Z,6.93
2022-07-25T19:37:22.741Z,7.57
2022-07-25T19:42:17.509Z,7.18
2022-07-25T19:47:11.983Z,7.32
2022-07-25T19:52:06.464Z,6.93
2022-07-25T19:57:02.653Z,6.75
2022-07-25T20:01:57.242Z,7.32
2022-07-25T20:06:50.806Z,12.45
2022-07-25T20:11:44.414Z,12.63
2022-07-25T20:16:42.388Z,10.02
2022-07-25T20:21:46.627Z,10.10
2022-07-25T20:26:40.015Z,9.45
2022-07-25T20:31:33.244Z,9.90
2022-07-25T20:36:26.532Z,9.60
2022-07-25T20:41:24.498Z,8.52
2022-07-25T20:46:17.873Z,7.85
2022-07-25T20:51:13.089Z,7.60
2022-07-25T20:56:17.186Z,7.72
2022-07-25T21:01:15.796Z,7.60
2022-07-25T21:06:09.290Z,7.43
2022-07-25T21:11:02.533Z,7.82
2022-07-25T21:15:55.717Z,8.20
2022-07-25T21:20:50.774Z,7.97
2022-07-25T21:25:44.160Z,8.27
2022-07-25T21:30:41.261Z,6.88
2022-07-25T21:35:49.361Z,7.90
2022-07-25T21:40:48.292Z,7.38
2022-07-25T21:45:41.564Z,7.35
2022-07-25T21:50:42.193Z,7.28
2022-07-25T21:55:37.887Z,7.53
2022-07-25T22:00:33.499Z,7.90
2022-07-25T22:05:27.093Z,6.80
2022-07-25T22:10:21.642Z,6.55
2022-07-25T22:15:15.761Z,6.95
2022-07-25T22:20:12.182Z,6.57
2022-07-25T22:25:06.214Z,6.03
2022-07-25T22:29:59.464Z,6.55
2022-07-25T22:34:52.653Z,6.35
2022-07-25T22:39:49.108Z,6.47
2022-07-25T22:44:42.318Z,6.45
2022-07-25T22:49:35.576Z,6.70
2022-07-25T22:54:28.823Z,6.45
2022-07-25T22:59:23.750Z,6.80
2022-07-25T23:04:17.065Z,6.60
2022-07-25T23:09:10.996Z,7.32
2022-07-25T23:14:04.634Z,7.13
2022-07-25T23:18:59.273Z,7.10
2022-07-25T23:23:55.339Z,6.90
2022-07-25T23:28:48.666Z,6.50
2022-07-25T23:33:42.913Z,7.28
2022-07-25T23:38:38.767Z,7.75
2022-07-25T23:43:44.649Z,7.30
2022-07-25T23:48:45.465Z,7.40
2022-07-25T23:53:40.040Z,7.65
2022-07-25T23:58:33.257Z,8.50
